Time;durP1;ratioP1;P1;durP2;ratioP2;P2;SDS_P1;SDS_P2;PMS_P1;PMS_P2;Temp;Humidity;BMP_temperature;BMP_pressure;BME280_temperature;BME280_humidity;BME280_pressure;Samples;Min_cycle;Max_cycle;Signal;HPM_P1;HPM_P2
2022/06/28 00:00:59;;;;;;;;;;;;;;;20.17;64.73;95207.53;5024908;28;19925;-78
2022/06/28 00:03:25;;;;;;;;;;;;;;;20.14;64.79;95209.94;5014667;28;19965;-78
2022/06/28 00:05:50;;;;;;;;;;;;;;;20.12;65.20;95212.88;5014363;28;19932;-78
2022/06/28 00:08:15;;;;;;;;;;;;;;;20.11;65.05;95208.66;5013954;28;20078;-78
2022/06/28 00:10:41;;;;;;;;;;;;;;;20.10;64.88;95215.00;5055113;23;19935;-79
2022/06/28 00:13:06;;;;;;;;;;;;;;;20.06;65.07;95212.16;5055950;28;19921;-78
2022/06/28 00:18:15;;;;;;;;;;;;;;;20.01;64.75;95211.41;5062445;28;19943;-78
2022/06/28 00:20:43;;;;;;;;;;;;;;;19.96;65.22;95214.13;5053614;28;19924;-78
2022/06/28 00:23:09;;;;;;;;;;;;;;;19.90;65.25;95215.25;5054715;28;19925;-79
2022/06/28 00:25:34;;;;;;;;;;;;;;;19.88;65.62;95212.09;5053957;28;20307;-79
2022/06/28 00:28:02;;;;;;;;;;;;;;;19.87;65.40;95211.31;5055808;28;19925;-79
2022/06/28 00:30:27;;;;;;;;;;;;;;;19.86;65.58;95214.25;5057030;28;19921;-79
2022/06/28 00:32:53;;;;;;;;;;;;;;;19.85;65.62;95218.72;5078250;22;20343;-79
2022/06/28 00:35:18;;;;;;;;;;;;;;;19.83;65.37;95217.41;5027675;28;19943;-79
2022/06/28 00:37:44;;;;;;;;;;;;;;;19.81;65.52;95207.13;5026285;28;19932;-79
2022/06/28 00:40:09;;;;;;;;;;;;;;;19.72;65.68;95209.63;5027316;28;19961;-79
2022/06/28 00:42:35;;;;;;;;;;;;;;;19.71;65.50;95215.97;5007617;28;19925;-79
2022/06/28 00:45:01;;;;;;;;;;;;;;;19.70;65.78;95209.13;5017945;28;19925;-78
2022/06/28 00:47:26;;;;;;;;;;;;;;;19.68;65.89;95215.72;5036834;28;19921;-79
2022/06/28 00:49:51;;;;;;;;;;;;;;;19.65;65.91;95217.06;5152653;22;20023;-79
2022/06/28 00:52:17;;;;;;;;;;;;;;;19.67;65.84;95214.94;5008301;28;19925;-79
2022/06/28 00:54:42;;;;;;;;;;;;;;;19.68;65.69;95213.84;5026246;28;19922;-78
2022/06/28 00:57:07;;;;;;;;;;;;;;;19.67;65.60;95214.94;5026010;28;20437;-78
2022/06/28 00:59:33;;;;;;;;;;;;;;;19.66;65.35;95210.72;5024821;28;19967;-78
2022/06/28 01:01:58;;;;;;;;;;;;;;;19.59;65.95;95215.53;5010616;28;19925;-79
2022/06/28 01:04:24;;;;;;;;;;;;;;;19.57;65.66;95215.03;5025214;28;19931;-79
2022/06/28 01:06:49;;;;;;;;;;;;;;;19.56;65.52;95218.75;5006614;28;20330;-78
2022/06/28 01:09:14;;;;;;;;;;;;;;;19.53;65.71;95214.00;5028751;28;19921;-78
2022/06/28 01:11:40;;;;;;;;;;;;;;;19.51;65.82;95213.47;5038278;28;19929;-78
2022/06/28 01:14:08;;;;;;;;;;;;;;;19.47;65.68;95217.72;5029341;28;19932;-79
2022/06/28 01:19:04;;;;;;;;;;;;;;;19.37;66.30;95212.56;5015806;28;20381;-78
2022/06/28 01:21:30;;;;;;;;;;;;;;;19.36;66.57;95210.97;5015042;28;20008;-78
2022/06/28 01:23:55;;;;;;;;;;;;;;;19.39;66.45;95210.44;5016613;28;20350;-79
2022/06/28 01:26:20;;;;;;;;;;;;;;;19.36;66.54;95205.69;4997625;28;19922;-79
2022/06/28 01:28:46;;;;;;;;;;;;;;;19.35;66.55;95209.38;4997413;28;19925;-78
2022/06/28 01:31:11;;;;;;;;;;;;;;;19.27;66.63;95205.50;4997990;28;19925;-78
2022/06/28 01:33:37;;;;;;;;;;;;;;;19.28;66.85;95204.44;4999044;28;20393;-78
2022/06/28 01:36:03;;;;;;;;;;;;;;;19.27;66.56;95212.63;5014861;28;19957;-78
2022/06/28 01:41:05;;;;;;;;;;;;;;;19.25;66.58;95220.81;5032667;23;20367;-78
2022/06/28 01:43:33;;;;;;;;;;;;;;;19.21;66.93;95206.63;5011427;28;20317;-79
2022/06/28 01:46:06;;;;;;;;;;;;;;;19.25;66.44;95204.22;5017896;28;19925;-78
2022/06/28 01:48:31;;;;;;;;;;;;;;;19.15;66.45;95211.13;5023315;28;20282;-78
2022/06/28 01:51:06;;;;;;;;;;;;;;;19.14;66.88;95211.41;5012202;28;19972;-78
2022/06/28 01:53:32;;;;;;;;;;;;;;;19.03;67.09;95213.31;5012061;28;19929;-78
2022/06/28 01:55:57;;;;;;;;;;;;;;;19.07;66.97;95209.09;5012464;28;19921;-78
2022/06/28 01:58:22;;;;;;;;;;;;;;;19.09;66.84;95212.25;5010908;28;20361;-78
2022/06/28 02:00:47;;;;;;;;;;;;;;;19.02;67.17;95205.69;5013786;28;19971;-78
2022/06/28 02:05:41;;;;;;;;;;;;;;;18.99;67.01;95212.31;5060056;22;19936;-77
2022/06/28 02:08:06;;;;;;;;;;;;;;;18.97;67.21;95209.16;5005356;28;20028;-78
2022/06/28 02:10:39;;;;;;;;;;;;;;;18.93;67.69;95208.13;5004122;28;19956;-78
2022/06/28 02:13:05;;;;;;;;;;;;;;;18.85;67.65;95211.34;5001069;28;19929;-77
2022/06/28 02:15:30;;;;;;;;;;;;;;;18.82;67.64;95211.88;4986262;28;19926;-78
2022/06/28 02:20:23;;;;;;;;;;;;;;;18.86;67.52;95215.53;5102861;22;19933;-78
2022/06/28 02:22:48;;;;;;;;;;;;;;;18.80;67.81;95214.00;5027362;28;19938;-78
2022/06/28 02:25:13;;;;;;;;;;;;;;;18.78;67.98;95221.41;5025607;28;20043;-78
2022/06/28 02:27:39;;;;;;;;;;;;;;;18.75;67.92;95217.47;5025274;28;20382;-78
2022/06/28 02:30:04;;;;;;;;;;;;;;;18.74;67.82;95210.63;5041295;28;20359;-78
2022/06/28 02:32:30;;;;;;;;;;;;;;;18.75;68.47;95214.06;5024633;28;19944;-78
2022/06/28 02:40:23;;;;;;;;;;;;;;;18.80;67.70;95219.28;5023972;28;20484;-78
2022/06/28 02:42:52;;;;;;;;;;;;;;;18.81;67.56;95218.22;5039583;28;19952;-78
2022/06/28 02:45:17;;;;;;;;;;;;;;;18.77;68.25;95215.34;5031924;28;19921;-79
2022/06/28 02:47:43;;;;;;;;;;;;;;;18.80;68.04;95222.72;5015386;23;19971;-78
2022/06/28 02:50:08;;;;;;;;;;;;;;;18.81;67.42;95215.59;5033562;28;19921;-78
2022/06/28 02:52:34;;;;;;;;;;;;;;;18.83;67.45;95213.47;5029920;28;19921;-79
2022/06/28 02:54:59;;;;;;;;;;;;;;;18.79;67.39;95217.72;5037856;28;19960;-78
2022/06/28 02:57:24;;;;;;;;;;;;;;;18.83;67.37;95218.72;5103472;23;19961;-78
2022/06/28 02:59:49;;;;;;;;;;;;;;;18.84;67.59;95215.03;5034228;28;20507;-78
2022/06/28 03:02:15;;;;;;;;;;;;;;;18.82;67.41;95214.53;5032224;28;19928;-78
2022/06/28 03:04:40;;;;;;;;;;;;;;;18.85;67.03;95217.41;5024057;28;19921;-78
2022/06/28 03:07:05;;;;;;;;;;;;;;;18.88;66.42;95210.81;5020763;28;19964;-77
2022/06/28 03:09:37;;;;;;;;;;;;;;;18.87;66.77;95203.94;5020411;28;20049;-78
2022/06/28 03:12:04;;;;;;;;;;;;;;;18.87;66.71;95207.41;5081031;23;19931;-78
2022/06/28 03:14:30;;;;;;;;;;;;;;;18.87;66.50;95203.94;5031616;28;19929;-78
2022/06/28 03:16:55;;;;;;;;;;;;;;;18.87;66.91;95203.94;5020587;28;19925;-77
2022/06/28 03:19:20;;;;;;;;;;;;;;;18.87;66.73;95203.94;5018746;28;19976;-77
2022/06/28 03:21:52;;;;;;;;;;;;;;;18.91;67.04;95207.63;5019709;23;20372;-77
2022/06/28 03:24:17;;;;;;;;;;;;;;;18.95;66.76;95206.00;5037995;28;19925;-77
2022/06/28 03:26:42;;;;;;;;;;;;;;;19.01;66.82;95209.38;5038822;23;19930;-77
2022/06/28 03:29:07;;;;;;;;;;;;;;;19.07;66.25;95200.41;5009761;28;20373;-77
2022/06/28 03:31:33;;;;;;;;;;;;;;;19.15;65.97;95200.59;5007340;28;19980;-77
2022/06/28 03:33:58;;;;;;;;;;;;;;;19.22;66.11;95204.78;5010895;28;19929;-77
2022/06/28 03:36:23;;;;;;;;;;;;;;;19.26;65.74;95200.50;5009680;28;20332;-77
2022/06/28 03:38:49;;;;;;;;;;;;;;;19.33;65.79;95208.88;5009332;28;19960;-77
2022/06/28 03:41:22;;;;;;;;;;;;;;;19.40;65.43;95212.00;5009924;23;19932;-77
2022/06/28 03:43:48;;;;;;;;;;;;;;;19.46;65.48;95210.88;4993193;28;19925;-76
2022/06/28 03:46:13;;;;;;;;;;;;;;;19.55;65.25;95217.16;4999398;28;19980;-77
2022/06/28 03:48:38;;;;;;;;;;;;;;;19.63;65.10;95219.19;5001251;28;19925;-77
2022/06/28 03:51:04;;;;;;;;;;;;;;;19.72;64.84;95230.72;5076449;23;19929;-78
2022/06/28 03:53:29;;;;;;;;;;;;;;;19.86;64.43;95232.72;5036104;28;19932;-78
2022/06/28 03:58:20;;;;;;;;;;;;;;;20.07;63.72;95226.94;5048412;22;19977;-78
2022/06/28 04:00:45;;;;;;;;;;;;;;;20.18;63.35;95232.91;5002077;28;20321;-78
2022/06/28 04:03:10;;;;;;;;;;;;;;;20.35;63.00;95233.22;4985221;28;20050;-77
2022/06/28 04:05:36;;;;;;;;;;;;;;;20.98;62.10;95240.84;4981425;28;20306;-77
2022/06/28 04:08:01;;;;;;;;;;;;;;;23.06;55.81;95238.97;4980048;28;19933;-78
2022/06/28 04:10:26;;;;;;;;;;;;;;;25.48;48.10;95233.75;4983085;28;20317;-78
2022/06/28 04:12:51;;;;;;;;;;;;;;;27.66;42.70;95243.00;4984153;28;20287;-78
2022/06/28 04:15:17;;;;;;;;;;;;;;;29.48;38.64;95244.13;4984655;28;19922;-78
2022/06/28 04:17:42;;;;;;;;;;;;;;;31.22;35.22;95247.56;4983582;28;19933;-79
2022/06/28 04:20:08;;;;;;;;;;;;;;;32.79;32.04;95240.34;4983962;28;19922;-79
2022/06/28 04:22:34;;;;;;;;;;;;;;;33.98;29.78;95244.91;4982771;28;20356;-79
2022/06/28 04:24:59;;;;;;;;;;;;;;;35.22;27.73;95243.53;4983976;28;19926;-79
2022/06/28 04:27:24;;;;;;;;;;;;;;;36.26;25.67;95246.16;4990211;28;19926;-79
2022/06/28 04:29:49;;;;;;;;;;;;;;;37.49;24.31;95246.38;4989784;28;20397;-79
2022/06/28 04:32:15;;;;;;;;;;;;;;;38.44;23.02;95246.22;4984041;28;19929;-79
2022/06/28 04:34:40;;;;;;;;;;;;;;;39.28;22.41;95238.44;4983339;28;19930;-79
2022/06/28 04:37:05;;;;;;;;;;;;;;;40.18;21.11;95238.03;4983528;28;19922;-79
2022/06/28 04:39:30;;;;;;;;;;;;;;;41.19;19.72;95243.38;4983858;28;20575;-79
2022/06/28 04:41:56;;;;;;;;;;;;;;;41.86;18.59;95242.00;4986618;28;19928;-79
2022/06/28 04:44:25;;;;;;;;;;;;;;;42.50;17.80;95246.03;4986809;28;20411;-82
2022/06/28 04:46:50;;;;;;;;;;;;;;;42.97;17.67;95251.09;4986056;28;19922;-81
2022/06/28 04:49:38;;;;;;;;;;;;;;;44.24;16.21;95245.13;4984909;28;19941;-83
2022/06/28 04:52:04;;;;;;;;;;;;;;;45.34;15.46;95237.91;4992214;28;19925;-80
2022/06/28 04:54:29;;;;;;;;;;;;;;;46.03;14.99;95251.44;4987545;28;19949;-80
2022/06/28 05:00:10;;;;;;;;;;;;;;;47.04;14.12;95238.69;4998327;28;19925;-81
2022/06/28 05:02:46;;;;;;;;;;;;;;;;;;;;;
2022/06/28 05:05:12;;;;;;;;;;;;;;;48.16;13.31;95240.75;4996755;28;19928;-81
2022/06/28 05:07:37;;;;;;;;;;;;;;;47.98;12.89;95236.84;4991621;28;19957;-81
2022/06/28 05:10:03;;;;;;;;;;;;;;;48.41;12.68;95235.56;4994251;28;20307;-81
2022/06/28 05:12:31;;;;;;;;;;;;;;;48.72;12.59;95242.00;4991791;28;19976;-81
2022/06/28 05:14:56;;;;;;;;;;;;;;;48.43;12.38;95237.84;5009084;28;19929;-81
2022/06/28 05:17:21;;;;;;;;;;;;;;;48.13;12.66;95231.41;4990759;28;19925;-81
2022/06/28 05:19:48;;;;;;;;;;;;;;;48.18;12.81;95232.78;5007664;28;19918;-81
2022/06/28 05:22:14;;;;;;;;;;;;;;;48.50;12.69;95232.00;5007674;28;19926;-81
2022/06/28 05:24:39;;;;;;;;;;;;;;;48.85;12.46;95231.47;5004394;28;19921;-81
2022/06/28 05:27:04;;;;;;;;;;;;;;;48.36;12.62;95227.94;4989131;28;19932;-81
2022/06/28 05:29:30;;;;;;;;;;;;;;;48.85;12.28;95223.19;4988597;28;19928;-81
2022/06/28 05:31:55;;;;;;;;;;;;;;;49.03;12.67;95239.63;5006151;28;19931;-81
2022/06/28 05:34:21;;;;;;;;;;;;;;;49.23;12.46;95236.97;4972548;28;19922;-81
2022/06/28 05:36:46;;;;;;;;;;;;;;;49.76;12.37;95240.94;4973977;28;19952;-81
2022/06/28 05:39:11;;;;;;;;;;;;;;;50.23;11.82;95241.91;4991085;28;19928;-81
2022/06/28 05:41:37;;;;;;;;;;;;;;;50.32;11.74;95234.25;5007754;28;20447;-81
2022/06/28 05:44:02;;;;;;;;;;;;;;;50.49;11.59;95239.28;4992533;28;19949;-81
2022/06/28 05:46:28;;;;;;;;;;;;;;;50.66;11.01;95245.78;5009460;28;20526;-81
2022/06/28 05:48:53;;;;;;;;;;;;;;;50.88;11.15;95235.00;4998638;28;19921;-81
2022/06/28 05:51:19;;;;;;;;;;;;;;;50.79;11.56;95237.91;5007235;28;20459;-82
2022/06/28 05:53:44;;;;;;;;;;;;;;;50.61;11.53;95243.69;4992172;28;19972;-81
2022/06/28 05:56:09;;;;;;;;;;;;;;;50.69;10.88;95239.31;4988985;28;20025;-82
2022/06/28 05:58:35;;;;;;;;;;;;;;;51.21;11.11;95242.16;4989688;28;19925;-81
2022/06/28 06:01:00;;;;;;;;;;;;;;;51.49;10.57;95246.00;4990792;28;19922;-81
2022/06/28 06:03:25;;;;;;;;;;;;;;;51.91;10.53;95248.13;5008038;28;20370;-81
2022/06/28 06:05:51;;;;;;;;;;;;;;;52.26;10.15;95240.81;4976198;28;19929;-81
2022/06/28 06:08:16;;;;;;;;;;;;;;;52.33;10.17;95245.88;5007354;28;19930;-82
2022/06/28 06:10:42;;;;;;;;;;;;;;;52.04;9.88;95242.16;5007075;28;19922;-81
2022/06/28 06:16:25;;;;;;;;;;;;;;;52.61;9.45;95232.94;4965394;28;19992;-82
2022/06/28 06:18:50;;;;;;;;;;;;;;;52.49;10.13;95225.81;4999224;28;19925;-81
2022/06/28 06:21:16;;;;;;;;;;;;;;;52.41;9.53;95231.09;5013249;28;19937;-82
2022/06/28 06:23:41;;;;;;;;;;;;;;;51.87;10.26;95221.84;4995987;28;20346;-82
2022/06/28 06:26:06;;;;;;;;;;;;;;;51.80;10.47;95222.31;4994595;28;19921;-81
2022/06/28 06:28:34;;;;;;;;;;;;;;;51.37;10.04;95219.41;4996891;28;20004;-81
2022/06/28 06:31:00;;;;;;;;;;;;;;;51.23;10.20;95220.25;4996836;28;19961;-81
2022/06/28 06:33:25;;;;;;;;;;;;;;;51.02;10.41;95211.97;4995618;28;20511;-81
2022/06/28 06:35:50;;;;;;;;;;;;;;;50.73;11.20;95218.44;4996126;28;19922;-82
2022/06/28 06:38:16;;;;;;;;;;;;;;;50.62;10.90;95210.00;4997432;28;19993;-81
2022/06/28 06:40:41;;;;;;;;;;;;;;;50.92;10.98;95205.06;5002637;28;19940;-80
2022/06/28 06:43:06;;;;;;;;;;;;;;;50.89;10.48;95208.81;5006437;28;20021;-81
2022/06/28 06:45:32;;;;;;;;;;;;;;;50.38;10.68;95209.44;5000798;28;20012;-81
2022/06/28 06:47:57;;;;;;;;;;;;;;;50.33;10.96;95199.03;5010757;28;20374;-80
2022/06/28 06:50:22;;;;;;;;;;;;;;;49.71;11.69;95192.59;4994474;28;19933;-81
2022/06/28 06:52:48;;;;;;;;;;;;;;;49.97;11.10;95197.53;5009274;28;19930;-80
2022/06/28 06:55:14;;;;;;;;;;;;;;;49.24;11.77;95194.28;5002548;28;19926;-80
2022/06/28 06:57:39;;;;;;;;;;;;;;;48.76;12.25;95184.59;4993611;28;19930;-83
2022/06/28 07:00:05;;;;;;;;;;;;;;;48.78;12.13;95184.88;4994294;28;19956;-81
2022/06/28 07:02:31;;;;;;;;;;;;;;;48.52;12.56;95179.88;4994361;28;20451;-82
2022/06/28 07:04:56;;;;;;;;;;;;;;;48.18;12.94;95183.13;4991516;28;20005;-81
2022/06/28 07:07:22;;;;;;;;;;;;;;;47.57;13.33;95185.22;4992173;28;20270;-82
2022/06/28 07:09:48;;;;;;;;;;;;;;;46.99;13.68;95186.22;5008739;28;20386;-84
2022/06/28 07:12:14;;;;;;;;;;;;;;;46.17;14.48;95176.63;4992867;28;19928;-80
2022/06/28 07:14:39;;;;;;;;;;;;;;;45.07;15.64;95184.31;4994958;28;19933;-80
2022/06/28 07:17:05;;;;;;;;;;;;;;;44.46;16.03;95185.63;4993298;28;19926;-80
2022/06/28 07:19:30;;;;;;;;;;;;;;;43.61;16.30;95171.84;4989062;28;19923;-80
2022/06/28 07:21:55;;;;;;;;;;;;;;;42.95;16.79;95176.09;4991279;28;19922;-80
2022/06/28 07:24:20;;;;;;;;;;;;;;;42.18;18.27;95172.22;4993247;28;19922;-79
2022/06/28 07:26:46;;;;;;;;;;;;;;;41.66;19.59;95173.78;4996536;28;19923;-80
2022/06/28 07:29:13;;;;;;;;;;;;;;;41.34;19.61;95173.69;4993087;28;19928;-80
2022/06/28 07:31:40;;;;;;;;;;;;;;;40.97;19.47;95175.56;4991978;28;19926;-80
2022/06/28 07:34:05;;;;;;;;;;;;;;;40.44;20.05;95177.28;4991860;28;19984;-80
2022/06/28 07:36:30;;;;;;;;;;;;;;;39.94;21.50;95184.69;4993441;28;19918;-79
2022/06/28 07:38:56;;;;;;;;;;;;;;;39.49;21.09;95174.03;5007287;28;20863;-80
2022/06/28 07:41:21;;;;;;;;;;;;;;;39.11;22.18;95184.25;4993421;28;20369;-80
2022/06/28 07:43:50;;;;;;;;;;;;;;;38.79;21.51;95190.00;4992282;28;19922;-80
2022/06/28 07:46:16;;;;;;;;;;;;;;;38.41;22.91;95184.53;4992981;28;20001;-80
2022/06/28 07:48:41;;;;;;;;;;;;;;;38.23;23.04;95187.38;4992773;28;19954;-80
2022/06/28 07:53:53;;;;;;;;;;;;;;;37.64;23.66;95186.63;4990585;28;19929;-79
2022/06/28 07:56:18;;;;;;;;;;;;;;;37.34;23.60;95187.94;4992836;28;19926;-79
2022/06/28 07:58:43;;;;;;;;;;;;;;;37.02;23.05;95182.63;4992977;28;19925;-79
2022/06/28 08:01:09;;;;;;;;;;;;;;;36.72;23.46;95169.50;4993037;28;19921;-79
2022/06/28 08:03:34;;;;;;;;;;;;;;;36.55;23.62;95181.94;4991862;28;20045;-79
2022/06/28 08:05:59;;;;;;;;;;;;;;;36.25;24.51;95171.50;4991048;28;20008;-80
2022/06/28 08:08:25;;;;;;;;;;;;;;;35.84;23.58;95173.03;4992524;28;19968;-79
2022/06/28 08:10:50;;;;;;;;;;;;;;;35.76;24.75;95164.09;4992099;28;19965;-79
2022/06/28 08:13:16;;;;;;;;;;;;;;;35.56;25.46;95166.41;5188129;23;20020;-79
2022/06/28 08:15:44;;;;;;;;;;;;;;;35.20;26.21;95160.88;5024828;28;20335;-80
2022/06/28 08:18:10;;;;;;;;;;;;;;;34.79;25.64;95162.97;5033927;28;19931;-80
2022/06/28 08:20:38;;;;;;;;;;;;;;;34.33;26.53;95157.28;5001380;28;19921;-79
2022/06/28 08:23:03;;;;;;;;;;;;;;;34.20;26.23;95159.53;5025245;28;19921;-82
2022/06/28 08:25:29;;;;;;;;;;;;;;;34.09;26.98;95164.06;5001552;28;19921;-79
2022/06/28 08:27:55;;;;;;;;;;;;;;;34.12;27.44;95167.94;5035783;28;19979;-84
2022/06/28 08:30:20;;;;;;;;;;;;;;;33.78;27.04;95159.91;5016637;28;20320;-77
2022/06/28 08:32:45;;;;;;;;;;;;;;;33.38;28.05;95164.16;5033481;28;19921;-77
2022/06/28 08:35:11;;;;;;;;;;;;;;;33.27;28.70;95160.53;5000189;28;20007;-79
2022/06/28 08:37:36;;;;;;;;;;;;;;;33.23;28.94;95167.03;5033053;28;19929;-78
2022/06/28 08:40:02;;;;;;;;;;;;;;;32.99;28.27;95165.59;5014863;28;20647;-77
2022/06/28 08:42:27;;;;;;;;;;;;;;;32.82;30.12;95165.00;5015980;28;20338;-81
2022/06/28 08:45:00;;;;;;;;;;;;;;;32.52;29.89;95170.34;5020525;28;19932;-77
2022/06/28 08:47:25;;;;;;;;;;;;;;;32.54;29.69;95175.34;5000627;28;19948;-77
2022/06/28 08:49:54;;;;;;;;;;;;;;;32.43;30.33;95163.69;5015416;28;20389;-76
2022/06/28 08:52:22;;;;;;;;;;;;;;;32.36;29.69;95166.25;5032659;28;19925;-80
2022/06/28 08:54:48;;;;;;;;;;;;;;;31.65;30.97;95166.63;5032859;28;19928;-77
2022/06/28 08:57:14;;;;;;;;;;;;;;;31.66;31.63;95165.47;5032927;28;20008;-77
2022/06/28 08:59:40;;;;;;;;;;;;;;;31.80;30.84;95164.19;5013999;28;20350;-77
2022/06/28 09:02:06;;;;;;;;;;;;;;;31.91;31.94;95165.16;5015696;28;19944;-77
2022/06/28 09:04:31;;;;;;;;;;;;;;;31.65;30.52;95172.00;5035196;28;19957;-77
2022/06/28 09:06:56;;;;;;;;;;;;;;;31.59;30.69;95170.75;5037005;28;19921;-77
2022/06/28 09:09:22;;;;;;;;;;;;;;;31.24;31.64;95175.44;5015550;28;19928;-77
2022/06/28 09:11:47;;;;;;;;;;;;;;;31.30;31.67;95168.66;5034225;28;19917;-77
2022/06/28 09:14:24;;;;;;;;;;;;;;;31.03;31.46;95159.66;5034103;28;19928;-77
2022/06/28 09:16:51;;;;;;;;;;;;;;;31.03;30.87;95160.44;5014923;28;19921;-77
2022/06/28 09:19:16;;;;;;;;;;;;;;;30.48;32.30;95158.88;5006354;28;20322;-77
2022/06/28 09:21:46;;;;;;;;;;;;;;;30.22;32.86;95156.75;5013586;28;19929;-77
2022/06/28 09:24:22;;;;;;;;;;;;;;;30.24;33.19;95156.41;4998097;28;20358;-77
2022/06/28 09:26:48;;;;;;;;;;;;;;;29.63;34.22;95157.63;5031444;28;19988;-76
2022/06/28 09:29:13;;;;;;;;;;;;;;;29.38;34.34;95161.50;5014586;28;20016;-77
2022/06/28 09:31:39;;;;;;;;;;;;;;;29.33;35.05;95153.75;5014594;28;20314;-79
2022/06/28 09:34:05;;;;;;;;;;;;;;;29.44;34.03;95152.09;5014282;28;19925;-77
2022/06/28 09:36:34;;;;;;;;;;;;;;;29.66;34.05;95162.28;5014357;28;19921;-77
2022/06/28 09:39:09;;;;;;;;;;;;;;;29.67;34.54;95161.16;5014333;28;19928;-77
2022/06/28 09:41:35;;;;;;;;;;;;;;;29.26;34.63;95152.41;5014127;28;19917;-77
2022/06/28 09:44:02;;;;;;;;;;;;;;;29.28;34.46;95160.88;4998376;28;19978;-77
2022/06/28 09:46:28;;;;;;;;;;;;;;;29.38;35.14;95148.13;5013890;28;19924;-77
2022/06/28 09:48:57;;;;;;;;;;;;;;;29.36;34.62;95153.81;4997767;28;19929;-77
2022/06/28 09:51:23;;;;;;;;;;;;;;;29.55;34.58;95153.97;5013652;28;19921;-77
2022/06/28 09:53:50;;;;;;;;;;;;;;;29.71;33.61;95143.25;5013329;28;19932;-77
2022/06/28 09:56:15;;;;;;;;;;;;;;;29.93;34.15;95143.75;5031929;28;19952;-77
2022/06/28 09:58:40;;;;;;;;;;;;;;;29.98;33.65;95146.22;5014517;28;20036;-77
2022/06/28 10:01:07;;;;;;;;;;;;;;;29.97;34.42;95141.97;5013971;28;19975;-77
2022/06/28 10:03:32;;;;;;;;;;;;;;;30.08;33.07;95145.69;5031670;28;19967;-77
2022/06/28 10:05:58;;;;;;;;;;;;;;;30.03;33.01;95132.53;5029265;28;19925;-77
2022/06/28 10:08:23;;;;;;;;;;;;;;;29.75;34.45;95130.72;5013229;28;19931;-77
2022/06/28 10:10:49;;;;;;;;;;;;;;;29.50;35.28;95151.53;5013736;28;20368;-77
2022/06/28 10:16:21;;;;;;;;;;;;;;;29.89;33.92;95128.38;5016022;28;19931;-77
2022/06/28 10:18:46;;;;;;;;;;;;;;;30.11;33.48;95126.25;5013175;28;19924;-77
2022/06/28 10:21:12;;;;;;;;;;;;;;;30.33;33.07;95133.63;4995991;28;19932;-78
2022/06/28 10:23:40;;;;;;;;;;;;;;;30.53;33.03;95126.38;5016128;28;19922;-79
2022/06/28 10:26:15;;;;;;;;;;;;;;;30.55;32.86;95134.09;5035158;28;19924;-79
2022/06/28 10:28:41;;;;;;;;;;;;;;;30.82;32.56;95116.28;5020177;28;19998;-83
2022/06/28 10:31:22;;;;;;;;;;;;;;;30.86;31.97;95117.13;5037081;28;20424;-79
2022/06/28 10:33:50;;;;;;;;;;;;;;;30.88;31.55;95125.59;5038371;28;19997;-80
2022/06/28 10:36:15;;;;;;;;;;;;;;;30.97;31.18;95124.25;5019966;28;19920;-80
2022/06/28 10:38:59;;;;;;;;;;;;;;;31.10;31.03;95118.75;5003332;28;19971;-80
2022/06/28 10:41:37;;;;;;;;;;;;;;;31.05;31.88;95115.19;5037919;28;19925;-81
2022/06/28 10:44:07;;;;;;;;;;;;;;;31.04;32.09;95112.88;5024833;28;19928;-80
2022/06/28 10:46:32;;;;;;;;;;;;;;;31.18;32.18;95112.38;5025265;28;19972;-79
2022/06/28 10:49:02;;;;;;;;;;;;;;;30.99;32.51;95111.25;5024453;28;20392;-79
2022/06/28 10:51:27;;;;;;;;;;;;;;;30.72;32.81;95106.88;5021368;28;19928;-81
2022/06/28 10:54:02;;;;;;;;;;;;;;;30.85;33.07;95110.97;5038295;28;19921;-81
2022/06/28 10:56:28;;;;;;;;;;;;;;;31.05;33.45;95099.06;5036315;28;19944;-81
2022/06/28 10:58:54;;;;;;;;;;;;;;;31.28;32.17;95101.06;5022220;28;19922;-81
2022/06/28 11:01:40;;;;;;;;;;;;;;;31.36;30.82;95102.72;5038979;28;19925;-81
2022/06/28 11:04:11;;;;;;;;;;;;;;;31.40;30.93;95098.19;5038406;28;19921;-82
2022/06/28 11:06:40;;;;;;;;;;;;;;;31.18;31.20;95091.66;5037881;28;19944;-81
2022/06/28 11:09:12;;;;;;;;;;;;;;;31.09;31.60;95085.72;5022589;28;20270;-79
2022/06/28 11:11:57;;;;;;;;;;;;;;;30.63;32.12;95082.16;5042452;28;19953;-81
2022/06/28 11:14:43;;;;;;;;;;;;;;;30.42;32.61;95079.75;5036453;28;19931;-82
2022/06/28 11:17:22;;;;;;;;;;;;;;;30.46;32.40;95083.31;5036916;28;19952;-81
2022/06/28 11:19:51;;;;;;;;;;;;;;;30.58;31.82;95091.22;5034289;28;19921;-81
2022/06/28 11:22:20;;;;;;;;;;;;;;;30.63;31.71;95090.22;5003978;28;19928;-81
2022/06/28 11:24:45;;;;;;;;;;;;;;;30.68;31.25;95085.31;5019116;28;19948;-81
2022/06/28 11:27:20;;;;;;;;;;;;;;;30.22;31.95;95084.31;5038870;28;19932;-80
2022/06/28 11:29:46;;;;;;;;;;;;;;;30.01;31.94;95097.25;5033036;28;19921;-81
2022/06/28 11:32:15;;;;;;;;;;;;;;;29.64;31.84;95086.81;5024786;28;19931;-80
2022/06/28 11:34:41;;;;;;;;;;;;;;;29.35;32.84;95085.28;5040978;28;19925;-80
2022/06/28 11:37:08;;;;;;;;;;;;;;;29.17;33.43;95090.19;5020392;28;20011;-81
2022/06/28 11:39:33;;;;;;;;;;;;;;;29.08;34.00;95089.56;5035298;28;19922;-81
2022/06/28 11:41:58;;;;;;;;;;;;;;;28.59;34.35;95102.34;5035507;28;19971;-80
2022/06/28 11:44:24;;;;;;;;;;;;;;;28.54;34.31;95100.69;5017614;28;19983;-80
2022/06/28 11:46:50;;;;;;;;;;;;;;;28.26;34.29;95094.50;5018682;28;19922;-81
2022/06/28 11:49:34;;;;;;;;;;;;;;;28.46;33.64;95088.22;5017303;28;20332;-81
2022/06/28 11:51:59;;;;;;;;;;;;;;;28.84;34.67;95089.66;5020538;28;19932;-81
2022/06/28 11:54:24;;;;;;;;;;;;;;;28.54;35.36;95103.38;5027238;28;19925;-81
2022/06/28 11:56:51;;;;;;;;;;;;;;;28.66;36.02;95095.31;5024721;28;19945;-81
2022/06/28 11:59:18;;;;;;;;;;;;;;;28.81;34.85;95098.38;5041733;28;19925;-79
2022/06/28 12:01:44;;;;;;;;;;;;;;;28.92;34.32;95099.47;5023452;28;19971;-81
2022/06/28 12:04:12;;;;;;;;;;;;;;;29.21;34.53;95106.34;5041696;28;19921;-79
2022/06/28 12:06:42;;;;;;;;;;;;;;;29.32;33.90;95102.06;5024148;28;20023;-81
2022/06/28 12:09:10;;;;;;;;;;;;;;;29.44;33.80;95098.50;5023042;28;20395;-83
2022/06/28 12:11:47;;;;;;;;;;;;;;;29.25;34.08;95097.28;5039875;28;19928;-82
2022/06/28 12:14:15;;;;;;;;;;;;;;;29.46;33.09;95093.63;5039862;28;19943;-83
2022/06/28 12:17:24;;;;;;;;;;;;;;;29.61;33.13;95090.16;5023736;28;20003;-82
2022/06/28 12:19:51;;;;;;;;;;;;;;;29.91;32.86;95089.72;5041318;28;19921;-83
2022/06/28 12:22:24;;;;;;;;;;;;;;;30.05;32.17;95087.38;5007514;28;19925;-82
2022/06/28 12:24:51;;;;;;;;;;;;;;;29.93;32.41;95092.81;5002701;28;19922;-82
2022/06/28 12:27:18;;;;;;;;;;;;;;;30.00;33.30;95083.06;5019733;28;20308;-80
2022/06/28 12:29:43;;;;;;;;;;;;;;;30.24;31.36;95079.38;5034390;28;19925;-82
2022/06/28 12:32:09;;;;;;;;;;;;;;;30.50;32.89;95083.38;5016880;28;20633;-80
2022/06/28 12:34:34;;;;;;;;;;;;;;;30.66;31.99;95084.13;5013945;28;19926;-80
2022/06/28 12:37:00;;;;;;;;;;;;;;;30.49;31.69;95077.25;5009560;28;20409;-77
2022/06/28 12:39:25;;;;;;;;;;;;;;;30.54;31.22;95078.84;5029217;28;19928;-77
2022/06/28 12:41:51;;;;;;;;;;;;;;;30.05;31.88;95068.63;5014134;28;19921;-77
2022/06/28 12:44:16;;;;;;;;;;;;;;;30.10;31.53;95065.66;5013700;28;19979;-77
2022/06/28 12:46:42;;;;;;;;;;;;;;;30.32;31.56;95058.88;5030452;28;19928;-77
2022/06/28 12:49:07;;;;;;;;;;;;;;;30.48;31.71;95054.22;5014707;28;20411;-77
2022/06/28 12:51:33;;;;;;;;;;;;;;;30.51;31.85;95050.03;5032227;28;20353;-77
2022/06/28 12:53:58;;;;;;;;;;;;;;;30.35;31.87;95050.88;5012660;28;19925;-77
2022/06/28 12:56:23;;;;;;;;;;;;;;;30.30;32.00;95045.03;5014141;28;19947;-77
2022/06/28 12:58:49;;;;;;;;;;;;;;;30.30;32.52;95043.13;5031939;28;19924;-77
2022/06/28 13:01:14;;;;;;;;;;;;;;;30.25;32.78;95039.91;5032470;28;19967;-77
2022/06/28 13:03:40;;;;;;;;;;;;;;;30.03;32.96;95035.97;5008637;28;20032;-78
2022/06/28 13:06:06;;;;;;;;;;;;;;;29.91;33.26;95030.72;5036765;28;20070;-81
2022/06/28 13:08:31;;;;;;;;;;;;;;;29.89;33.34;95029.19;5015084;28;20265;-77
2022/06/28 13:10:56;;;;;;;;;;;;;;;29.88;32.87;95016.13;5032662;28;19978;-78
2022/06/28 13:13:22;;;;;;;;;;;;;;;29.79;32.77;95019.00;4998158;28;19925;-77
2022/06/28 13:15:48;;;;;;;;;;;;;;;29.82;32.56;95007.59;5015033;28;19925;-76
2022/06/28 13:18:13;;;;;;;;;;;;;;;29.73;32.52;95008.88;5015601;28;20359;-77